Terminal Aerodrome Forecast
Issued by NWS St Louis, MO

Home | Current Version | Previous Version | Text Only | Print | Product List | Glossary On
Versions: 1 2 3 4 5 6 7 8 9 10 11 12 13 14 15 16 17 18 19 20 21 22 23 24 25 26 27 28
000
FTUS43 KLSX 251500 AAC
TAFSTL
TAF AMD
KSTL 251502Z 2515/2618 16010KT 4SM BR OVC006
     FM251700 18010KT P6SM OVC015
     FM251900 27007KT P6SM VCTS BKN020CB
     FM252200 34012KT 5SM -RA BR OVC012
     FM260600 01012KT P6SM OVC012
     FM261500 05010KT P6SM BKN035=

USA.gov is the U.S. government's official web portal to all federal, state and local government web resources and services.